createdAt,value
2023-05-21T00:01:29.783Z,12.53
2023-05-21T00:03:57.288Z,12.60
2023-05-21T00:06:25.014Z,12.87
2023-05-21T00:08:52.400Z,12.23
2023-05-21T00:11:19.804Z,12.10
2023-05-21T00:13:47.197Z,12.63
2023-05-21T00:16:17.137Z,12.77
2023-05-21T00:32:04.268Z,11.83
2023-05-21T00:34:35.166Z,12.97
2023-05-21T00:43:41.130Z,12.00
2023-05-21T00:46:16.740Z,12.57
2023-05-21T00:51:55.609Z,11.73
2023-05-21T00:54:24.884Z,11.60
2023-05-21T01:06:14.444Z,13.03
2023-05-21T01:09:45.221Z,12.93
2023-05-21T01:52:50.581Z,12.00
2023-05-21T01:55:18.606Z,12.93
2023-05-21T01:57:46.305Z,12.77
2023-05-21T02:00:15.171Z,12.50
2023-05-21T02:02:47.735Z,12.17
2023-05-21T02:29:19.117Z,12.43
2023-05-21T02:31:47.272Z,12.27
2023-05-21T03:16:49.144Z,12.50
2023-05-21T03:19:18.554Z,13.67
2023-05-21T03:21:46.279Z,12.93
2023-05-21T03:24:15.014Z,13.57
2023-05-21T03:26:42.417Z,12.70
2023-05-21T03:29:09.801Z,11.60
2023-05-21T03:31:39.763Z,12.67
2023-05-21T03:34:09.776Z,12.77
2023-05-21T03:36:37.147Z,12.73
2023-05-21T03:39:04.572Z,12.80
2023-05-21T03:41:34.055Z,12.33
2023-05-21T03:44:08.297Z,13.20
2023-05-21T03:46:48.190Z,13.37
2023-05-21T03:49:22.216Z,12.03
2023-05-21T03:51:52.275Z,12.90
2023-05-21T03:54:21.084Z,12.77
2023-05-21T03:56:50.455Z,12.60
2023-05-21T03:59:17.803Z,12.43
2023-05-21T04:01:45.854Z,13.20
2023-05-21T04:04:16.183Z,13.63
2023-05-21T04:06:43.892Z,13.30
2023-05-21T04:09:13.035Z,12.10
2023-05-21T04:11:40.508Z,12.67
2023-05-21T04:14:07.979Z,13.10
2023-05-21T04:22:43.805Z,12.73
2023-05-21T04:25:12.106Z,12.87
2023-05-21T04:27:40.019Z,12.43
2023-05-21T04:30:09.759Z,12.73
2023-05-21T04:32:38.411Z,12.47
2023-05-21T04:35:08.331Z,12.63
2023-05-21T04:37:36.187Z,12.37
2023-05-21T04:40:04.028Z,13.13
2023-05-21T04:42:32.933Z,12.93
2023-05-21T04:45:00.719Z,12.43
2023-05-21T04:47:30.342Z,12.63
2023-05-21T04:49:59.817Z,12.73
2023-05-21T04:52:28.420Z,12.90
2023-05-21T04:54:55.812Z,12.40
2023-05-21T04:57:24.914Z,13.23
2023-05-21T04:59:52.672Z,12.87
2023-05-21T05:02:20.144Z,12.50
2023-05-21T05:04:47.494Z,12.70
2023-05-21T05:07:15.546Z,11.57
2023-05-21T05:09:44.076Z,13.07
2023-05-21T05:12:11.478Z,12.33
2023-05-21T05:14:38.762Z,13.37
2023-05-21T05:17:08.447Z,11.97
2023-05-21T05:19:36.527Z,13.00
2023-05-21T05:22:04.123Z,13.47
2023-05-21T05:24:31.957Z,12.87
2023-05-21T05:27:00.187Z,12.30
2023-05-21T05:29:27.594Z,13.67
2023-05-21T05:31:55.392Z,12.07
2023-05-21T05:34:22.860Z,12.17
2023-05-21T05:36:50.294Z,13.00
2023-05-21T05:39:17.740Z,12.53
2023-05-21T05:41:46.556Z,13.17
2023-05-21T05:44:14.066Z,11.87
2023-05-21T05:46:41.592Z,13.60
2023-05-21T05:49:09.157Z,12.60
2023-05-21T05:51:37.242Z,12.13
2023-05-21T05:54:05.223Z,12.77
2023-05-21T05:56:33.742Z,12.87
2023-05-21T06:02:32.542Z,12.50
2023-05-21T06:05:00.035Z,11.73
2023-05-21T06:07:27.552Z,12.43
2023-05-21T06:09:54.932Z,12.20
2023-05-21T06:12:22.296Z,13.13
2023-05-21T06:16:25.186Z,11.87
2023-05-21T06:18:53.532Z,12.83
2023-05-21T06:32:48.901Z,12.03
2023-05-21T06:35:16.820Z,12.23
2023-05-21T06:37:44.719Z,12.10
2023-05-21T06:40:14.976Z,12.40
2023-05-21T06:42:45.793Z,11.77
2023-05-21T06:45:37.735Z,12.17
2023-05-21T06:48:21.556Z,12.27
2023-05-21T06:50:49.715Z,12.23
2023-05-21T06:53:21.467Z,10.97
2023-05-21T06:55:53.514Z,11.97
2023-05-21T06:58:31.362Z,12.20
2023-05-21T07:00:59.899Z,12.13
2023-05-21T07:03:28.188Z,11.63
2023-05-21T07:05:57.191Z,11.57
2023-05-21T07:08:24.784Z,12.27
2023-05-21T07:10:52.553Z,11.67
2023-05-21T07:13:20.511Z,12.30
2023-05-21T07:15:48.262Z,11.53
2023-05-21T07:18:16.774Z,11.80
2023-05-21T07:20:45.097Z,12.23
2023-05-21T07:23:15.504Z,11.87
2023-05-21T07:25:42.869Z,11.97
2023-05-21T07:28:10.416Z,11.40
2023-05-21T07:30:38.865Z,11.53
2023-05-21T07:33:10.598Z,12.53
2023-05-21T07:35:38.401Z,11.97
2023-05-21T07:38:06.152Z,11.53
2023-05-21T07:40:33.956Z,12.13
2023-05-21T07:43:03.479Z,11.23
2023-05-21T07:45:32.214Z,11.03
2023-05-21T07:47:59.773Z,11.70
2023-05-21T07:50:28.500Z,11.80
2023-05-21T07:52:55.883Z,12.20
2023-05-21T07:55:23.509Z,11.33
2023-05-21T07:57:52.380Z,10.77
2023-05-21T08:00:25.198Z,10.93
2023-05-21T08:02:56.172Z,10.90
2023-05-21T08:05:25.818Z,10.87
2023-05-21T08:07:53.622Z,10.10
2023-05-21T08:10:21.938Z,10.83
2023-05-21T08:12:51.193Z,11.20
2023-05-21T08:15:19.852Z,10.30
2023-05-21T08:17:47.574Z,11.00
2023-05-21T08:20:16.004Z,11.70
2023-05-21T08:22:46.036Z,10.40
2023-05-21T08:25:13.733Z,10.70
2023-05-21T08:27:42.632Z,10.47
2023-05-21T08:30:11.518Z,11.23
2023-05-21T08:32:39.503Z,11.87
2023-05-21T08:35:08.342Z,11.00
2023-05-21T08:37:46.216Z,10.73
2023-05-21T08:40:27.902Z,10.17
2023-05-21T08:42:56.066Z,11.53
2023-05-21T08:45:42.304Z,10.90
2023-05-21T08:48:13.866Z,10.83
2023-05-21T08:50:42.463Z,10.33
2023-05-21T08:53:28.061Z,10.37
2023-05-21T08:55:57.702Z,11.87
2023-05-21T08:58:33.711Z,10.67
2023-05-21T09:01:01.874Z,10.52
2023-05-21T09:03:31.882Z,10.33
2023-05-21T09:06:00.611Z,10.15
2023-05-21T09:08:38.681Z,10.23
2023-05-21T09:11:17.327Z,10.93
2023-05-21T09:13:52.709Z,10.10
2023-05-21T09:16:28.319Z,10.13
2023-05-21T09:18:55.980Z,10.35
2023-05-21T09:21:29.130Z,9.80
2023-05-21T09:24:01.976Z,10.10
2023-05-21T09:26:30.327Z,10.50
2023-05-21T09:29:02.544Z,10.50
2023-05-21T09:31:31.145Z,10.10
2023-05-21T09:33:58.809Z,10.73
2023-05-21T09:36:29.354Z,10.95
2023-05-21T09:38:59.812Z,10.60
2023-05-21T09:41:35.779Z,10.15
2023-05-21T09:44:05.029Z,10.25
2023-05-21T09:46:41.912Z,10.07
2023-05-21T09:49:26.472Z,10.20
2023-05-21T09:51:57.950Z,14.35
2023-05-21T09:54:30.984Z,9.73
2023-05-21T09:57:01.321Z,9.95
2023-05-21T09:59:40.791Z,10.88
2023-05-21T10:02:22.410Z,10.23
2023-05-21T10:04:51.980Z,10.27
2023-05-21T10:07:27.002Z,10.37
2023-05-21T10:09:57.686Z,10.40
2023-05-21T10:12:26.071Z,10.07
2023-05-21T10:15:09.783Z,10.00
2023-05-21T10:17:39.256Z,9.70
2023-05-21T10:20:10.559Z,9.82
2023-05-21T10:22:38.107Z,10.23
2023-05-21T10:25:07.793Z,10.00
2023-05-21T10:27:37.244Z,9.80
2023-05-21T10:30:06.146Z,10.60
2023-05-21T10:32:33.980Z,10.00
2023-05-21T10:35:02.625Z,9.93
2023-05-21T10:37:31.220Z,10.07
2023-05-21T10:39:59.017Z,9.50
2023-05-21T10:42:30.235Z,10.52
2023-05-21T10:45:24.632Z,10.35
2023-05-21T10:48:13.283Z,10.60
2023-05-21T10:51:21.820Z,9.60
2023-05-21T10:54:27.394Z,10.40
2023-05-21T10:57:16.192Z,9.90
2023-05-21T10:59:48.161Z,10.18
2023-05-21T11:02:17.803Z,10.02
2023-05-21T11:04:49.004Z,8.95
2023-05-21T11:07:24.557Z,8.83
2023-05-21T11:09:52.035Z,9.95
2023-05-21T11:12:22.982Z,10.00
2023-05-21T11:14:58.133Z,9.50
2023-05-21T11:17:40.472Z,8.93
2023-05-21T11:20:10.603Z,9.60
2023-05-21T11:22:38.270Z,9.18
2023-05-21T11:25:06.539Z,9.40
2023-05-21T11:27:41.782Z,10.23
2023-05-21T11:30:14.724Z,8.77
2023-05-21T11:33:16.282Z,8.90
2023-05-21T11:36:01.832Z,9.13
2023-05-21T11:38:31.679Z,8.80
2023-05-21T11:41:03.414Z,8.70
2023-05-21T11:43:31.128Z,9.87
2023-05-21T11:45:59.384Z,9.53
2023-05-21T11:48:28.923Z,8.13
2023-05-21T11:50:58.352Z,8.13
2023-05-21T11:53:25.858Z,8.83
2023-05-21T11:55:57.227Z,8.23
2023-05-21T11:58:25.820Z,7.78
2023-05-21T12:00:53.947Z,8.60
2023-05-21T12:03:26.630Z,7.88
2023-05-21T12:05:54.438Z,8.20
2023-05-21T12:08:25.451Z,8.30
2023-05-21T12:10:59.187Z,8.00
2023-05-21T12:13:26.874Z,8.52
2023-05-21T12:15:54.577Z,7.67
2023-05-21T12:18:22.130Z,8.35
2023-05-21T12:20:52.071Z,7.90
2023-05-21T12:23:20.911Z,8.68
2023-05-21T12:25:49.160Z,8.25
2023-05-21T12:28:17.152Z,7.90
2023-05-21T12:30:44.565Z,8.13
2023-05-21T12:33:12.552Z,8.15
2023-05-21T12:35:39.907Z,7.63
2023-05-21T12:38:09.602Z,8.10
2023-05-21T12:40:39.230Z,8.63
2023-05-21T12:43:08.103Z,8.50
2023-05-21T12:45:37.178Z,8.90
2023-05-21T12:48:05.007Z,8.23
2023-05-21T12:50:33.448Z,8.73
2023-05-21T12:53:00.909Z,8.63
2023-05-21T12:55:28.523Z,8.45
2023-05-21T12:58:05.000Z,8.50
2023-05-21T13:00:34.477Z,8.00
2023-05-21T13:03:04.240Z,8.50
2023-05-21T13:05:31.929Z,8.45
2023-05-21T13:07:59.292Z,8.40
2023-05-21T13:10:26.614Z,8.93
2023-05-21T13:12:53.983Z,8.18
2023-05-21T13:15:22.217Z,9.70
2023-05-21T13:17:50.613Z,8.53
2023-05-21T13:20:23.707Z,8.00
2023-05-21T13:22:52.068Z,8.57
2023-05-21T13:25:21.983Z,7.30
2023-05-21T13:27:50.758Z,7.73
2023-05-21T13:30:18.960Z,8.32
2023-05-21T13:32:46.676Z,7.40
2023-05-21T13:35:16.292Z,7.78
2023-05-21T13:37:43.931Z,7.25
2023-05-21T13:40:16.354Z,7.65
2023-05-21T13:42:45.392Z,7.43
2023-05-21T13:45:14.727Z,7.37
2023-05-21T13:47:42.710Z,7.78
2023-05-21T13:50:10.821Z,7.43
2023-05-21T13:52:39.111Z,7.90
2023-05-21T13:55:06.915Z,7.68
2023-05-21T13:57:34.403Z,8.00
2023-05-21T14:00:02.427Z,8.38
2023-05-21T14:02:35.236Z,8.77
2023-05-21T14:05:02.674Z,7.70
2023-05-21T14:07:31.223Z,8.00
2023-05-21T14:09:58.643Z,8.50
2023-05-21T14:12:26.805Z,8.95
2023-05-21T14:14:54.175Z,8.60
2023-05-21T14:17:21.564Z,8.60
2023-05-21T14:19:49.042Z,9.50
2023-05-21T14:22:16.394Z,8.63
2023-05-21T14:24:44.073Z,7.90
2023-05-21T14:27:13.153Z,7.45
2023-05-21T14:29:42.454Z,7.60
2023-05-21T14:32:09.826Z,7.93
2023-05-21T14:34:38.390Z,8.18
2023-05-21T14:37:06.196Z,8.63
2023-05-21T14:39:33.581Z,8.23
2023-05-21T14:42:04.522Z,8.05
2023-05-21T14:44:32.602Z,8.13
2023-05-21T14:47:00.536Z,8.23
2023-05-21T14:49:28.312Z,8.55
2023-05-21T14:51:55.805Z,8.18
2023-05-21T14:54:23.203Z,8.02
2023-05-21T14:56:50.559Z,7.40
2023-05-21T14:59:17.880Z,7.90
2023-05-21T15:01:45.415Z,8.45
2023-05-21T15:04:12.974Z,8.03
2023-05-21T15:06:41.909Z,8.48
2023-05-21T15:09:09.297Z,8.38
2023-05-21T15:11:36.718Z,8.60
2023-05-21T15:14:04.500Z,8.52
2023-05-21T15:16:31.864Z,7.88
2023-05-21T15:18:59.326Z,8.63
2023-05-21T15:21:28.466Z,8.77
2023-05-21T15:23:55.954Z,8.90
2023-05-21T15:26:25.292Z,7.83
2023-05-21T15:28:52.968Z,7.40
2023-05-21T15:31:20.605Z,8.55
2023-05-21T15:33:48.935Z,8.52
2023-05-21T15:36:16.354Z,8.45
2023-05-21T15:38:44.085Z,7.50
2023-05-21T15:41:11.436Z,8.15
2023-05-21T15:43:38.778Z,8.43
2023-05-21T15:46:06.654Z,7.10
2023-05-21T15:48:34.475Z,8.98
2023-05-21T15:51:01.851Z,7.70
2023-05-21T15:53:29.273Z,8.15
2023-05-21T15:55:57.498Z,7.53
2023-05-21T15:58:25.119Z,7.37
2023-05-21T16:00:52.431Z,8.10
2023-05-21T16:03:20.401Z,8.43
2023-05-21T16:05:47.761Z,8.25
2023-05-21T16:08:15.154Z,7.82
2023-05-21T16:10:45.826Z,7.95
2023-05-21T16:13:13.900Z,8.55
2023-05-21T16:15:41.366Z,7.80
2023-05-21T16:18:09.890Z,7.93
2023-05-21T16:20:37.599Z,8.70
2023-05-21T16:23:06.314Z,8.32
2023-05-21T16:25:35.513Z,9.40
2023-05-21T16:28:03.760Z,8.02
2023-05-21T16:30:31.114Z,7.75
2023-05-21T16:32:58.667Z,7.80
2023-05-21T16:35:26.003Z,7.55
2023-05-21T16:37:53.358Z,7.03
2023-05-21T16:40:20.805Z,7.32
2023-05-21T16:42:48.231Z,7.97
2023-05-21T16:45:20.600Z,8.48
2023-05-21T16:47:49.007Z,7.97
2023-05-21T16:50:17.422Z,7.80
2023-05-21T16:52:45.880Z,8.00
2023-05-21T16:55:13.272Z,8.00
2023-05-21T16:57:40.697Z,7.95
2023-05-21T17:00:08.606Z,7.85
2023-05-21T17:02:36.242Z,8.00
2023-05-21T17:05:04.059Z,7.82
2023-05-21T17:07:31.571Z,8.10
2023-05-21T17:09:59.045Z,7.85
2023-05-21T17:12:26.389Z,7.43
2023-05-21T17:14:54.291Z,7.60
2023-05-21T17:17:22.776Z,7.82
2023-05-21T17:19:50.206Z,7.57
2023-05-21T17:22:17.640Z,7.15
2023-05-21T17:24:46.033Z,7.50
2023-05-21T17:27:13.495Z,6.70
2023-05-21T17:29:42.302Z,7.10
2023-05-21T17:32:10.608Z,7.00
2023-05-21T17:34:38.481Z,7.43
2023-05-21T17:37:06.010Z,6.97
2023-05-21T17:39:33.361Z,7.97
2023-05-21T17:42:01.409Z,8.15
2023-05-21T17:44:28.990Z,7.90
2023-05-21T17:46:56.746Z,7.68
2023-05-21T17:49:26.017Z,7.13
2023-05-21T17:51:54.898Z,7.30
2023-05-21T17:54:22.532Z,7.40
2023-05-21T17:56:50.228Z,7.88
2023-05-21T17:59:17.790Z,7.60
2023-05-21T18:01:45.255Z,7.35
2023-05-21T18:04:13.995Z,8.00
2023-05-21T18:06:42.688Z,8.00
2023-05-21T18:09:13.096Z,8.48
2023-05-21T18:11:42.570Z,8.80
2023-05-21T18:14:10.640Z,8.23
2023-05-21T18:16:38.047Z,8.32
2023-05-21T18:19:06.643Z,8.25
2023-05-21T18:21:37.708Z,8.05
2023-05-21T18:24:06.409Z,8.38
2023-05-21T18:26:33.816Z,8.10
2023-05-21T18:29:01.285Z,7.97
2023-05-21T18:31:29.065Z,8.70
2023-05-21T18:33:56.841Z,8.98
2023-05-21T18:36:24.116Z,8.47
2023-05-21T18:38:52.200Z,8.55
2023-05-21T18:41:20.052Z,8.40
2023-05-21T18:43:47.432Z,9.30
2023-05-21T18:46:14.919Z,9.00
2023-05-21T18:48:42.327Z,8.73
2023-05-21T18:51:10.077Z,9.13
2023-05-21T18:53:38.537Z,9.30
2023-05-21T18:56:07.527Z,8.60
2023-05-21T18:58:35.846Z,9.73
2023-05-21T19:01:04.439Z,9.60
2023-05-21T19:03:32.687Z,8.82
2023-05-21T19:06:00.318Z,8.73
2023-05-21T19:08:27.763Z,8.93
2023-05-21T19:10:56.840Z,9.27
2023-05-21T19:13:24.825Z,9.27
2023-05-21T19:15:52.976Z,8.70
2023-05-21T19:18:21.152Z,9.97
2023-05-21T19:20:50.258Z,9.43
2023-05-21T19:23:18.184Z,9.53
2023-05-21T19:25:45.976Z,9.73
2023-05-21T19:28:13.391Z,11.37
2023-05-21T19:30:41.018Z,10.93
2023-05-21T19:33:08.470Z,9.33
2023-05-21T19:35:37.652Z,10.80
2023-05-21T19:38:05.762Z,10.40
2023-05-21T19:40:33.630Z,10.10
2023-05-21T19:43:01.300Z,10.27
2023-05-21T19:45:28.764Z,10.43
2023-05-21T19:47:56.792Z,10.43
2023-05-21T19:50:24.494Z,11.63
2023-05-21T19:52:52.126Z,12.33
2023-05-21T19:55:20.190Z,11.27
2023-05-21T19:57:47.810Z,10.20
2023-05-21T20:00:15.701Z,11.43
2023-05-21T20:02:43.302Z,10.13
2023-05-21T20:05:10.670Z,9.63
2023-05-21T20:07:38.040Z,10.50
2023-05-21T20:10:06.257Z,11.50
2023-05-21T20:12:33.579Z,11.73
2023-05-21T20:15:01.212Z,11.40
2023-05-21T20:17:30.351Z,11.37
2023-05-21T20:19:58.995Z,10.97
2023-05-21T20:22:26.569Z,11.13
2023-05-21T20:24:54.182Z,11.33
2023-05-21T20:27:21.524Z,11.47
2023-05-21T20:29:49.241Z,10.20
2023-05-21T20:32:16.583Z,11.37
2023-05-21T20:35:01.693Z,11.00
2023-05-21T20:37:33.955Z,11.57
2023-05-21T20:40:01.537Z,12.20
2023-05-21T20:42:34.099Z,11.47
2023-05-21T20:45:02.926Z,11.80
2023-05-21T20:47:30.781Z,12.57
2023-05-21T20:49:59.540Z,12.30
2023-05-21T20:52:26.936Z,11.83
2023-05-21T20:54:59.554Z,11.90
2023-05-21T20:57:28.213Z,12.10
2023-05-21T20:59:56.163Z,11.83
2023-05-21T21:02:23.583Z,12.77
2023-05-21T21:04:51.178Z,10.90
2023-05-21T21:07:19.280Z,10.33
2023-05-21T21:09:47.232Z,11.73
2023-05-21T21:14:48.896Z,11.73
2023-05-21T21:17:16.322Z,11.87
2023-05-21T21:19:43.649Z,11.80
2023-05-21T21:22:11.138Z,12.40
2023-05-21T21:24:38.527Z,11.50
2023-05-21T21:27:06.613Z,11.17
2023-05-21T21:29:34.535Z,11.90
2023-05-21T21:32:02.597Z,11.13
2023-05-21T21:34:30.088Z,11.17
2023-05-21T21:36:57.466Z,11.10
2023-05-21T21:39:26.130Z,10.93
2023-05-21T21:41:53.500Z,11.43
2023-05-21T21:44:21.787Z,11.63
2023-05-21T21:46:49.457Z,11.73
2023-05-21T21:49:17.416Z,11.47
2023-05-21T21:51:45.499Z,11.60
2023-05-21T21:54:12.952Z,11.00
2023-05-21T21:56:40.570Z,11.30
2023-05-21T21:59:08.006Z,11.37
2023-05-21T22:01:35.876Z,12.27
2023-05-21T22:04:03.729Z,12.83
2023-05-21T22:06:31.285Z,13.13
2023-05-21T22:08:58.767Z,13.20
2023-05-21T22:11:28.345Z,12.50
2023-05-21T22:13:56.073Z,12.47
2023-05-21T22:16:28.987Z,12.07
2023-05-21T22:18:57.897Z,10.77
2023-05-21T22:21:29.139Z,11.00
2023-05-21T22:23:56.453Z,11.83
2023-05-21T22:26:24.018Z,10.67
2023-05-21T22:28:51.484Z,10.77
2023-05-21T22:31:18.875Z,11.10
2023-05-21T22:33:46.702Z,11.50
2023-05-21T22:36:14.052Z,10.03
2023-05-21T22:38:41.517Z,11.23
2023-05-21T22:41:09.138Z,11.13
2023-05-21T22:43:37.363Z,11.57
2023-05-21T22:46:04.791Z,11.80
2023-05-21T22:48:32.181Z,11.27
2023-05-21T22:51:02.008Z,11.60
2023-05-21T22:53:30.057Z,12.03
2023-05-21T22:55:58.119Z,12.23
2023-05-21T22:58:25.710Z,12.30
2023-05-21T23:00:53.092Z,12.23
2023-05-21T23:03:20.650Z,12.77
2023-05-21T23:05:48.131Z,11.83
2023-05-21T23:08:16.163Z,13.03
2023-05-21T23:10:44.154Z,11.93
2023-05-21T23:13:12.716Z,13.00
2023-05-21T23:15:43.657Z,12.77
2023-05-21T23:18:12.433Z,13.83
2023-05-21T23:20:40.974Z,12.97
2023-05-21T23:23:09.682Z,12.63
2023-05-21T23:25:37.352Z,13.63
2023-05-21T23:28:06.078Z,14.13
2023-05-21T23:30:33.461Z,13.03
2023-05-21T23:33:00.999Z,13.00
2023-05-21T23:35:28.529Z,13.70
2023-05-21T23:37:55.871Z,13.23
2023-05-21T23:40:23.321Z,13.60
2023-05-21T23:42:50.640Z,14.20
2023-05-21T23:45:18.118Z,13.33
2023-05-21T23:47:45.650Z,13.00
2023-05-21T23:50:13.014Z,12.67
2023-05-21T23:52:41.477Z,13.80
2023-05-21T23:55:11.495Z,13.67
2023-05-21T23:57:39.058Z,13.20
